sensor_id;sensor_type;location;lat;lon;timestamp;pressure;altitude;pressure_sealevel;temperature;humidity
70254;BME280;57649;42.968;1.608;2022-11-20T00:01:33;97456.69;;;5.59;98.71
70254;BME280;57649;42.968;1.608;2022-11-20T00:03:58;97467.31;;;5.59;99.97
70254;BME280;57649;42.968;1.608;2022-11-20T00:06:25;97461.53;;;5.35;100.00
70254;BME280;57649;42.968;1.608;2022-11-20T00:08:54;97460.09;;;5.31;100.00
70254;BME280;57649;42.968;1.608;2022-11-20T00:11:22;97467.94;;;5.42;100.00
70254;BME280;57649;42.968;1.608;2022-11-20T00:13:51;97459.13;;;5.32;100.00
70254;BME280;57649;42.968;1.608;2022-11-20T00:16:19;97467.66;;;5.35;100.00
70254;BME280;57649;42.968;1.608;2022-11-20T00:18:45;97466.09;;;5.33;100.00
70254;BME280;57649;42.968;1.608;2022-11-20T00:21:22;97468.94;;;5.41;100.00
70254;BME280;57649;42.968;1.608;2022-11-20T00:23:49;97463.59;;;5.31;100.00
70254;BME280;57649;42.968;1.608;2022-11-20T00:26:17;97472.84;;;5.37;100.00
70254;BME280;57649;42.968;1.608;2022-11-20T00:28:43;97476.69;;;5.23;100.00
70254;BME280;57649;42.968;1.608;2022-11-20T00:31:11;97462.44;;;5.24;100.00
70254;BME280;57649;42.968;1.608;2022-11-20T00:33:38;97466.78;;;5.25;100.00
70254;BME280;57649;42.968;1.608;2022-11-20T00:36:05;97468.56;;;5.15;100.00
70254;BME280;57649;42.968;1.608;2022-11-20T00:38:32;97460.81;;;5.02;100.00
70254;BME280;57649;42.968;1.608;2022-11-20T00:40:59;97468.97;;;5.20;100.00
70254;BME280;57649;42.968;1.608;2022-11-20T00:43:25;97465.34;;;5.21;100.00
70254;BME280;57649;42.968;1.608;2022-11-20T00:46:05;97465.47;;;5.19;100.00
70254;BME280;57649;42.968;1.608;2022-11-20T00:48:32;97458.78;;;5.15;100.00
70254;BME280;57649;42.968;1.608;2022-11-20T00:50:58;97471.06;;;5.16;100.00
70254;BME280;57649;42.968;1.608;2022-11-20T00:53:24;97475.41;;;5.17;100.00
70254;BME280;57649;42.968;1.608;2022-11-20T00:55:59;97466.19;;;5.21;100.00
70254;BME280;57649;42.968;1.608;2022-11-20T00:58:31;97467.44;;;5.17;100.00
70254;BME280;57649;42.968;1.608;2022-11-20T01:01:07;97477.72;;;5.11;100.00
70254;BME280;57649;42.968;1.608;2022-11-20T01:03:34;97467.13;;;5.11;100.00
70254;BME280;57649;42.968;1.608;2022-11-20T01:06:02;97463.97;;;4.96;100.00
70254;BME280;57649;42.968;1.608;2022-11-20T01:08:34;97466.81;;;5.04;100.00
70254;BME280;57649;42.968;1.608;2022-11-20T01:11:02;97470.69;;;5.00;100.00
70254;BME280;57649;42.968;1.608;2022-11-20T01:13:30;97474.19;;;5.00;100.00
70254;BME280;57649;42.968;1.608;2022-11-20T01:16:26;97481.88;;;5.04;100.00
70254;BME280;57649;42.968;1.608;2022-11-20T01:18:54;97472.34;;;4.91;100.00
70254;BME280;57649;42.968;1.608;2022-11-20T01:21:23;97482.09;;;4.91;100.00
70254;BME280;57649;42.968;1.608;2022-11-20T01:23:50;97467.41;;;4.87;100.00
70254;BME280;57649;42.968;1.608;2022-11-20T01:26:21;97470.19;;;4.85;100.00
70254;BME280;57649;42.968;1.608;2022-11-20T01:28:47;97470.78;;;4.89;100.00
70254;BME280;57649;42.968;1.608;2022-11-20T01:31:18;97467.81;;;4.82;100.00
70254;BME280;57649;42.968;1.608;2022-11-20T01:33:43;97471.75;;;4.88;100.00
70254;BME280;57649;42.968;1.608;2022-11-20T01:36:10;97478.31;;;4.84;100.00
70254;BME280;57649;42.968;1.608;2022-11-20T01:38:36;97477.31;;;4.85;100.00
70254;BME280;57649;42.968;1.608;2022-11-20T01:41:02;97476.47;;;4.84;100.00
70254;BME280;57649;42.968;1.608;2022-11-20T01:43:28;97469.88;;;4.78;100.00
70254;BME280;57649;42.968;1.608;2022-11-20T01:54:09;97484.13;;;4.56;100.00
70254;BME280;57649;42.968;1.608;2022-11-20T01:56:40;97478.22;;;4.53;99.73
70254;BME280;57649;42.968;1.608;2022-11-20T01:59:09;97477.31;;;4.42;100.00
70254;BME280;57649;42.968;1.608;2022-11-20T02:01:35;97484.09;;;4.35;100.00
70254;BME280;57649;42.968;1.608;2022-11-20T02:04:01;97482.84;;;4.39;100.00
70254;BME280;57649;42.968;1.608;2022-11-20T02:06:36;97488.75;;;4.43;100.00
70254;BME280;57649;42.968;1.608;2022-11-20T02:09:04;97483.63;;;4.30;100.00
70254;BME280;57649;42.968;1.608;2022-11-20T02:11:31;97487.13;;;4.31;100.00
70254;BME280;57649;42.968;1.608;2022-11-20T02:13:56;97481.38;;;4.26;99.67
70254;BME280;57649;42.968;1.608;2022-11-20T02:16:28;97490.03;;;4.28;99.80
70254;BME280;57649;42.968;1.608;2022-11-20T02:18:57;97485.06;;;4.34;98.74
70254;BME280;57649;42.968;1.608;2022-11-20T02:24:06;97482.25;;;4.15;98.55
70254;BME280;57649;42.968;1.608;2022-11-20T02:26:38;97482.47;;;4.12;98.36
70254;BME280;57649;42.968;1.608;2022-11-20T02:29:04;97479.84;;;4.12;98.28
70254;BME280;57649;42.968;1.608;2022-11-20T02:31:36;97483.34;;;4.01;98.56
70254;BME280;57649;42.968;1.608;2022-11-20T02:34:01;97482.66;;;3.99;99.81
70254;BME280;57649;42.968;1.608;2022-11-20T02:36:28;97482.00;;;4.07;99.76
70254;BME280;57649;42.968;1.608;2022-11-20T02:38:55;97475.09;;;3.94;99.01
70254;BME280;57649;42.968;1.608;2022-11-20T02:41:20;97488.06;;;3.97;98.57
70254;BME280;57649;42.968;1.608;2022-11-20T02:43:46;97488.22;;;3.96;97.67
70254;BME280;57649;42.968;1.608;2022-11-20T02:46:11;97495.06;;;3.98;96.82
70254;BME280;57649;42.968;1.608;2022-11-20T02:48:37;97495.28;;;3.95;97.18
70254;BME280;57649;42.968;1.608;2022-11-20T02:51:02;97497.03;;;3.85;96.26
70254;BME280;57649;42.968;1.608;2022-11-20T02:53:28;97489.94;;;3.74;97.89
70254;BME280;57649;42.968;1.608;2022-11-20T02:55:53;97491.00;;;3.72;97.51
70254;BME280;57649;42.968;1.608;2022-11-20T02:58:18;97496.91;;;3.75;97.35
70254;BME280;57649;42.968;1.608;2022-11-20T03:00:44;97498.03;;;3.61;96.57
70254;BME280;57649;42.968;1.608;2022-11-20T03:03:09;97496.34;;;3.49;96.48
70254;BME280;57649;42.968;1.608;2022-11-20T03:05:35;97487.81;;;3.45;97.26
70254;BME280;57649;42.968;1.608;2022-11-20T03:08:00;97487.19;;;3.42;97.04
70254;BME280;57649;42.968;1.608;2022-11-20T03:10:26;97501.88;;;3.35;97.00
70254;BME280;57649;42.968;1.608;2022-11-20T03:12:55;97495.38;;;3.27;97.78
70254;BME280;57649;42.968;1.608;2022-11-20T03:15:22;97502.38;;;3.28;98.31
70254;BME280;57649;42.968;1.608;2022-11-20T03:17:47;97499.94;;;3.25;98.31
70254;BME280;57649;42.968;1.608;2022-11-20T03:20:13;97484.06;;;3.37;98.83
70254;BME280;57649;42.968;1.608;2022-11-20T03:22:38;97487.31;;;3.40;98.40
70254;BME280;57649;42.968;1.608;2022-11-20T03:25:04;97476.75;;;3.29;98.85
70254;BME280;57649;42.968;1.608;2022-11-20T03:27:34;97490.69;;;3.31;99.07
70254;BME280;57649;42.968;1.608;2022-11-20T03:30:00;97485.78;;;3.38;97.04
70254;BME280;57649;42.968;1.608;2022-11-20T03:32:25;97475.66;;;3.20;98.78
70254;BME280;57649;42.968;1.608;2022-11-20T03:34:50;97471.34;;;3.31;99.32
70254;BME280;57649;42.968;1.608;2022-11-20T03:37:16;97462.91;;;3.25;98.23
70254;BME280;57649;42.968;1.608;2022-11-20T03:39:41;97456.91;;;3.23;98.94
70254;BME280;57649;42.968;1.608;2022-11-20T03:42:08;97482.63;;;3.21;98.61
70254;BME280;57649;42.968;1.608;2022-11-20T03:44:53;97483.59;;;3.20;98.54
70254;BME280;57649;42.968;1.608;2022-11-20T03:49:44;97481.81;;;3.21;97.13
70254;BME280;57649;42.968;1.608;2022-11-20T03:52:10;97481.22;;;3.17;97.41
70254;BME280;57649;42.968;1.608;2022-11-20T03:54:35;97481.06;;;3.07;97.16
70254;BME280;57649;42.968;1.608;2022-11-20T03:57:00;97478.19;;;2.99;98.02
70254;BME280;57649;42.968;1.608;2022-11-20T03:59:26;97474.34;;;3.03;98.06
70254;BME280;57649;42.968;1.608;2022-11-20T04:01:51;97486.50;;;3.06;96.87
70254;BME280;57649;42.968;1.608;2022-11-20T04:04:17;97471.81;;;3.13;97.31
70254;BME280;57649;42.968;1.608;2022-11-20T04:06:42;97473.88;;;3.10;96.84
70254;BME280;57649;42.968;1.608;2022-11-20T04:09:07;97472.53;;;3.04;97.04
70254;BME280;57649;42.968;1.608;2022-11-20T04:11:35;97455.94;;;2.91;97.44
70254;BME280;57649;42.968;1.608;2022-11-20T04:14:04;97464.34;;;2.96;97.16
70254;BME280;57649;42.968;1.608;2022-11-20T04:16:34;97473.28;;;3.06;97.68
70254;BME280;57649;42.968;1.608;2022-11-20T04:19:00;97476.38;;;3.11;98.26
70254;BME280;57649;42.968;1.608;2022-11-20T04:21:27;97474.81;;;3.08;97.34
70254;BME280;57649;42.968;1.608;2022-11-20T04:23:54;97469.88;;;2.93;97.26
70254;BME280;57649;42.968;1.608;2022-11-20T04:26:21;97463.38;;;2.97;96.94
70254;BME280;57649;42.968;1.608;2022-11-20T04:28:47;97466.63;;;2.89;97.34
70254;BME280;57649;42.968;1.608;2022-11-20T04:31:17;97468.44;;;2.88;97.88
70254;BME280;57649;42.968;1.608;2022-11-20T04:33:44;97462.31;;;2.88;97.45
70254;BME280;57649;42.968;1.608;2022-11-20T04:36:16;97469.25;;;2.89;97.03
70254;BME280;57649;42.968;1.608;2022-11-20T04:38:42;97469.13;;;2.79;96.80
70254;BME280;57649;42.968;1.608;2022-11-20T04:41:13;97453.28;;;2.68;96.72
70254;BME280;57649;42.968;1.608;2022-11-20T04:43:39;97459.06;;;2.73;96.54
70254;BME280;57649;42.968;1.608;2022-11-20T04:46:05;97468.31;;;2.79;97.51
70254;BME280;57649;42.968;1.608;2022-11-20T04:48:30;97454.47;;;2.64;96.07
70254;BME280;57649;42.968;1.608;2022-11-20T04:50:56;97462.25;;;2.65;96.59
70254;BME280;57649;42.968;1.608;2022-11-20T04:53:22;97462.03;;;2.68;96.83
70254;BME280;57649;42.968;1.608;2022-11-20T04:55:48;97460.94;;;2.71;96.42
70254;BME280;57649;42.968;1.608;2022-11-20T04:58:14;97470.78;;;2.58;96.13
70254;BME280;57649;42.968;1.608;2022-11-20T05:00:40;97457.16;;;2.40;96.78
70254;BME280;57649;42.968;1.608;2022-11-20T05:03:06;97457.66;;;2.45;96.54
70254;BME280;57649;42.968;1.608;2022-11-20T05:05:32;97461.28;;;2.44;96.73
70254;BME280;57649;42.968;1.608;2022-11-20T05:07:58;97449.38;;;2.14;96.92
70254;BME280;57649;42.968;1.608;2022-11-20T05:10:25;97467.03;;;2.14;97.10
70254;BME280;57649;42.968;1.608;2022-11-20T05:12:51;97471.41;;;2.26;98.48
70254;BME280;57649;42.968;1.608;2022-11-20T05:15:16;97467.34;;;2.33;97.65
70254;BME280;57649;42.968;1.608;2022-11-20T05:17:49;97462.75;;;2.24;97.37
70254;BME280;57649;42.968;1.608;2022-11-20T05:20:15;97461.34;;;2.31;97.17
70254;BME280;57649;42.968;1.608;2022-11-20T05:22:41;97457.72;;;2.32;97.91
70254;BME280;57649;42.968;1.608;2022-11-20T05:25:06;97457.50;;;2.35;96.79
70254;BME280;57649;42.968;1.608;2022-11-20T05:27:32;97432.97;;;2.22;96.77
70254;BME280;57649;42.968;1.608;2022-11-20T05:29:57;97445.13;;;2.36;97.38
70254;BME280;57649;42.968;1.608;2022-11-20T05:32:23;97449.13;;;2.41;96.22
70254;BME280;57649;42.968;1.608;2022-11-20T05:34:53;97446.34;;;2.43;96.22
70254;BME280;57649;42.968;1.608;2022-11-20T05:37:18;97447.06;;;2.34;96.82
70254;BME280;57649;42.968;1.608;2022-11-20T05:39:44;97445.28;;;2.45;96.39
70254;BME280;57649;42.968;1.608;2022-11-20T05:42:09;97447.81;;;2.47;95.05
70254;BME280;57649;42.968;1.608;2022-11-20T05:44:53;97448.38;;;2.39;95.67
70254;BME280;57649;42.968;1.608;2022-11-20T05:47:18;97433.97;;;2.32;95.60
70254;BME280;57649;42.968;1.608;2022-11-20T05:49:44;97442.16;;;2.40;95.81
70254;BME280;57649;42.968;1.608;2022-11-20T05:52:09;97440.06;;;2.33;94.84
70254;BME280;57649;42.968;1.608;2022-11-20T05:54:35;97449.38;;;2.38;95.30
70254;BME280;57649;42.968;1.608;2022-11-20T05:57:00;97452.56;;;2.30;96.14
70254;BME280;57649;42.968;1.608;2022-11-20T05:59:26;97451.47;;;2.22;94.73
70254;BME280;57649;42.968;1.608;2022-11-20T06:01:51;97460.56;;;2.18;96.10
70254;BME280;57649;42.968;1.608;2022-11-20T06:04:16;97461.75;;;2.14;96.19
70254;BME280;57649;42.968;1.608;2022-11-20T06:06:42;97461.03;;;2.11;96.46
70254;BME280;57649;42.968;1.608;2022-11-20T06:09:07;97462.03;;;1.98;96.01
70254;BME280;57649;42.968;1.608;2022-11-20T06:11:33;97464.97;;;2.06;96.28
70254;BME280;57649;42.968;1.608;2022-11-20T06:13:58;97461.41;;;1.94;96.43
70254;BME280;57649;42.968;1.608;2022-11-20T06:16:23;97450.81;;;1.83;97.29
70254;BME280;57649;42.968;1.608;2022-11-20T06:18:49;97460.38;;;1.97;97.28
70254;BME280;57649;42.968;1.608;2022-11-20T06:21:20;97459.53;;;1.96;96.65
70254;BME280;57649;42.968;1.608;2022-11-20T06:23:46;97464.63;;;1.86;96.65
70254;BME280;57649;42.968;1.608;2022-11-20T06:26:25;97454.31;;;1.83;96.76
70254;BME280;57649;42.968;1.608;2022-11-20T06:28:52;97460.69;;;1.92;96.76
70254;BME280;57649;42.968;1.608;2022-11-20T06:31:20;97448.06;;;1.84;96.42
70254;BME280;57649;42.968;1.608;2022-11-20T06:33:46;97459.75;;;1.93;96.38
70254;BME280;57649;42.968;1.608;2022-11-20T06:36:13;97454.13;;;1.98;96.56
70254;BME280;57649;42.968;1.608;2022-11-20T06:38:40;97455.47;;;2.03;96.43
70254;BME280;57649;42.968;1.608;2022-11-20T06:41:07;97455.19;;;1.95;96.18
70254;BME280;57649;42.968;1.608;2022-11-20T06:43:33;97459.13;;;1.89;96.47
70254;BME280;57649;42.968;1.608;2022-11-20T06:45:59;97465.13;;;1.91;96.13
70254;BME280;57649;42.968;1.608;2022-11-20T06:48:28;97471.13;;;1.93;96.37
70254;BME280;57649;42.968;1.608;2022-11-20T06:50:53;97466.94;;;1.91;96.33
70254;BME280;57649;42.968;1.608;2022-11-20T06:53:19;97471.94;;;1.83;97.05
70254;BME280;57649;42.968;1.608;2022-11-20T06:55:46;97468.56;;;1.81;97.13
70254;BME280;57649;42.968;1.608;2022-11-20T06:58:12;97470.88;;;1.85;96.90
70254;BME280;57649;42.968;1.608;2022-11-20T07:00:38;97477.28;;;1.57;97.48
70254;BME280;57649;42.968;1.608;2022-11-20T07:03:05;97474.13;;;1.52;98.42
70254;BME280;57649;42.968;1.608;2022-11-20T07:05:30;97457.53;;;1.63;98.55
70254;BME280;57649;42.968;1.608;2022-11-20T07:07:56;97469.38;;;1.57;98.47
70254;BME280;57649;42.968;1.608;2022-11-20T07:10:22;97463.44;;;1.66;97.54
70254;BME280;57649;42.968;1.608;2022-11-20T07:12:54;97465.97;;;1.68;97.52
70254;BME280;57649;42.968;1.608;2022-11-20T07:15:22;97471.66;;;1.75;96.69
70254;BME280;57649;42.968;1.608;2022-11-20T07:17:48;97467.84;;;1.79;96.48
70254;BME280;57649;42.968;1.608;2022-11-20T07:20:14;97479.91;;;1.94;95.99
70254;BME280;57649;42.968;1.608;2022-11-20T07:22:39;97487.81;;;1.94;96.38
70254;BME280;57649;42.968;1.608;2022-11-20T07:25:06;97476.25;;;1.84;95.88
70254;BME280;57649;42.968;1.608;2022-11-20T07:27:32;97489.72;;;1.92;95.39
70254;BME280;57649;42.968;1.608;2022-11-20T07:29:57;97490.59;;;1.92;94.99
70254;BME280;57649;42.968;1.608;2022-11-20T07:32:22;97486.81;;;1.84;96.55
70254;BME280;57649;42.968;1.608;2022-11-20T07:34:48;97486.41;;;1.77;95.91
70254;BME280;57649;42.968;1.608;2022-11-20T07:37:14;97490.03;;;1.76;95.76
70254;BME280;57649;42.968;1.608;2022-11-20T07:39:39;97488.22;;;1.77;96.78
70254;BME280;57649;42.968;1.608;2022-11-20T07:42:08;97489.97;;;1.89;96.57
70254;BME280;57649;42.968;1.608;2022-11-20T07:44:35;97482.00;;;2.02;96.38
70254;BME280;57649;42.968;1.608;2022-11-20T07:47:00;97484.69;;;2.13;95.49
70254;BME280;57649;42.968;1.608;2022-11-20T07:49:26;97479.28;;;2.15;94.67
70254;BME280;57649;42.968;1.608;2022-11-20T07:51:52;97480.53;;;2.22;95.18
70254;BME280;57649;42.968;1.608;2022-11-20T07:54:21;97479.44;;;2.24;94.63
70254;BME280;57649;42.968;1.608;2022-11-20T07:56:47;97480.28;;;2.25;94.93
70254;BME280;57649;42.968;1.608;2022-11-20T07:59:13;97478.03;;;2.31;94.64
70254;BME280;57649;42.968;1.608;2022-11-20T08:01:39;97475.91;;;2.37;94.16
70254;BME280;57649;42.968;1.608;2022-11-20T08:04:05;97487.56;;;2.45;93.37
70254;BME280;57649;42.968;1.608;2022-11-20T08:06:31;97479.78;;;2.55;92.85
70254;BME280;57649;42.968;1.608;2022-11-20T08:08:56;97472.19;;;2.50;93.96
70254;BME280;57649;42.968;1.608;2022-11-20T08:11:22;97477.88;;;2.68;93.51
70254;BME280;57649;42.968;1.608;2022-11-20T08:14:06;97484.97;;;2.57;93.10
70254;BME280;57649;42.968;1.608;2022-11-20T08:16:38;97478.47;;;2.61;93.56
70254;BME280;57649;42.968;1.608;2022-11-20T08:19:04;97478.72;;;2.69;92.10
70254;BME280;57649;42.968;1.608;2022-11-20T08:21:30;97482.84;;;2.73;92.90
70254;BME280;57649;42.968;1.608;2022-11-20T08:23:57;97485.00;;;2.79;92.04
70254;BME280;57649;42.968;1.608;2022-11-20T08:26:23;97466.28;;;2.82;92.47
70254;BME280;57649;42.968;1.608;2022-11-20T08:28:48;97477.81;;;3.04;92.21
70254;BME280;57649;42.968;1.608;2022-11-20T08:31:14;97474.81;;;3.31;91.38
70254;BME280;57649;42.968;1.608;2022-11-20T08:33:39;97473.84;;;3.43;91.02
70254;BME280;57649;42.968;1.608;2022-11-20T08:36:05;97476.13;;;3.59;90.29
70254;BME280;57649;42.968;1.608;2022-11-20T08:38:31;97475.38;;;3.80;88.73
70254;BME280;57649;42.968;1.608;2022-11-20T08:41:02;97479.41;;;3.95;89.21
70254;BME280;57649;42.968;1.608;2022-11-20T08:43:46;97474.47;;;4.02;88.26
70254;BME280;57649;42.968;1.608;2022-11-20T08:46:12;97473.78;;;4.21;88.20
70254;BME280;57649;42.968;1.608;2022-11-20T08:48:37;97492.84;;;4.15;88.09
70254;BME280;57649;42.968;1.608;2022-11-20T08:51:03;97498.22;;;4.24;87.80
70254;BME280;57649;42.968;1.608;2022-11-20T08:53:28;97493.13;;;4.33;86.89
70254;BME280;57649;42.968;1.608;2022-11-20T08:55:54;97501.38;;;4.51;87.90
70254;BME280;57649;42.968;1.608;2022-11-20T08:58:19;97500.41;;;4.52;87.94
70254;BME280;57649;42.968;1.608;2022-11-20T09:00:45;97501.69;;;4.57;87.10
70254;BME280;57649;42.968;1.608;2022-11-20T09:03:10;97504.03;;;4.51;88.16
70254;BME280;57649;42.968;1.608;2022-11-20T09:05:37;97509.91;;;4.75;87.41
70254;BME280;57649;42.968;1.608;2022-11-20T09:08:03;97511.03;;;4.94;88.04
70254;BME280;57649;42.968;1.608;2022-11-20T09:10:28;97516.13;;;5.07;86.53
70254;BME280;57649;42.968;1.608;2022-11-20T09:12:54;97507.47;;;5.05;86.43
70254;BME280;57649;42.968;1.608;2022-11-20T09:15:20;97518.25;;;5.13;85.22
70254;BME280;57649;42.968;1.608;2022-11-20T09:18:00;97521.94;;;5.21;84.55
70254;BME280;57649;42.968;1.608;2022-11-20T09:20:28;97517.69;;;5.40;83.98
70254;BME280;57649;42.968;1.608;2022-11-20T09:22:55;97525.59;;;5.51;82.98
70254;BME280;57649;42.968;1.608;2022-11-20T09:25:21;97533.72;;;5.59;82.86
70254;BME280;57649;42.968;1.608;2022-11-20T09:27:47;97537.59;;;5.86;82.27
70254;BME280;57649;42.968;1.608;2022-11-20T09:30:14;97535.69;;;5.98;80.92
70254;BME280;57649;42.968;1.608;2022-11-20T09:32:40;97536.25;;;6.11;81.50
70254;BME280;57649;42.968;1.608;2022-11-20T09:35:06;97528.63;;;6.38;81.17
70254;BME280;57649;42.968;1.608;2022-11-20T09:37:31;97531.16;;;6.49;78.31
70254;BME280;57649;42.968;1.608;2022-11-20T09:39:58;97542.06;;;6.85;77.65
70254;BME280;57649;42.968;1.608;2022-11-20T09:42:57;97547.75;;;7.19;74.84
70254;BME280;57649;42.968;1.608;2022-11-20T09:45:35;97555.25;;;7.53;75.50
70254;BME280;57649;42.968;1.608;2022-11-20T09:50:56;97550.22;;;7.50;71.46
70254;BME280;57649;42.968;1.608;2022-11-20T09:56:08;97559.13;;;7.68;73.21
70254;BME280;57649;42.968;1.608;2022-11-20T09:58:45;97570.81;;;7.85;71.64
70254;BME280;57649;42.968;1.608;2022-11-20T10:01:17;97550.31;;;7.96;72.71
70254;BME280;57649;42.968;1.608;2022-11-20T10:06:23;97544.44;;;7.92;72.40
70254;BME280;57649;42.968;1.608;2022-11-20T10:14:27;97519.94;;;8.70;69.25
70254;BME280;57649;42.968;1.608;2022-11-20T10:29:47;97475.41;;;9.23;66.29
70254;BME280;57649;42.968;1.608;2022-11-20T10:32:20;97473.88;;;9.47;64.56
70254;BME280;57649;42.968;1.608;2022-11-20T10:34:59;97465.13;;;9.62;66.34
70254;BME280;57649;42.968;1.608;2022-11-20T10:37:27;97463.69;;;9.85;64.12
70254;BME280;57649;42.968;1.608;2022-11-20T10:40:20;97455.75;;;10.09;63.41
70254;BME280;57649;42.968;1.608;2022-11-20T10:42:53;97450.09;;;10.29;63.47
70254;BME280;57649;42.968;1.608;2022-11-20T10:47:50;97447.13;;;10.56;61.89
70254;BME280;57649;42.968;1.608;2022-11-20T10:50:19;97450.16;;;10.70;61.61
70254;BME280;57649;42.968;1.608;2022-11-20T10:55:36;97439.59;;;11.01;60.68
70254;BME280;57649;42.968;1.608;2022-11-20T11:01:13;97437.69;;;11.10;61.88
70254;BME280;57649;42.968;1.608;2022-11-20T11:03:39;97429.34;;;11.21;60.83
70254;BME280;57649;42.968;1.608;2022-11-20T11:06:20;97430.31;;;11.28;60.90
70254;BME280;57649;42.968;1.608;2022-11-20T11:08:49;97432.31;;;11.26;61.09
70254;BME280;57649;42.968;1.608;2022-11-20T11:11:25;97430.31;;;11.20;61.94
70254;BME280;57649;42.968;1.608;2022-11-20T11:13:52;97418.91;;;11.26;59.37
70254;BME280;57649;42.968;1.608;2022-11-20T11:16:23;97430.94;;;11.39;60.61
70254;BME280;57649;42.968;1.608;2022-11-20T11:18:49;97420.97;;;11.55;61.28
70254;BME280;57649;42.968;1.608;2022-11-20T11:21:22;97421.13;;;11.62;60.17
70254;BME280;57649;42.968;1.608;2022-11-20T11:24:00;97418.13;;;11.57;61.55
70254;BME280;57649;42.968;1.608;2022-11-20T11:26:26;97404.13;;;11.39;61.79
70254;BME280;57649;42.968;1.608;2022-11-20T11:29:15;97398.97;;;11.68;61.70
70254;BME280;57649;42.968;1.608;2022-11-20T11:31:42;97402.94;;;11.81;61.63
70254;BME280;57649;42.968;1.608;2022-11-20T11:34:12;97396.97;;;11.70;61.06
70254;BME280;57649;42.968;1.608;2022-11-20T11:36:38;97392.16;;;11.97;62.07
70254;BME280;57649;42.968;1.608;2022-11-20T11:39:06;97389.06;;;12.08;58.45
70254;BME280;57649;42.968;1.608;2022-11-20T11:41:34;97396.00;;;11.63;61.32
70254;BME280;57649;42.968;1.608;2022-11-20T11:44:16;97395.94;;;11.40;60.93
70254;BME280;57649;42.968;1.608;2022-11-20T11:47:00;97386.28;;;11.62;61.02
70254;BME280;57649;42.968;1.608;2022-11-20T11:49:28;97393.94;;;11.73;63.12
70254;BME280;57649;42.968;1.608;2022-11-20T11:52:13;97381.50;;;11.81;63.34
70254;BME280;57649;42.968;1.608;2022-11-20T11:54:55;97378.09;;;11.95;61.23
70254;BME280;57649;42.968;1.608;2022-11-20T12:00:05;97373.59;;;12.10;61.52
70254;BME280;57649;42.968;1.608;2022-11-20T12:13:03;97366.19;;;11.89;61.60
70254;BME280;57649;42.968;1.608;2022-11-20T12:15:34;97355.31;;;11.91;60.49
70254;BME280;57649;42.968;1.608;2022-11-20T12:18:00;97351.25;;;11.95;59.71
70254;BME280;57649;42.968;1.608;2022-11-20T12:20:33;97351.94;;;11.89;61.35
70254;BME280;57649;42.968;1.608;2022-11-20T12:23:28;97358.66;;;11.93;60.48
70254;BME280;57649;42.968;1.608;2022-11-20T12:25:58;97358.97;;;11.98;58.21
70254;BME280;57649;42.968;1.608;2022-11-20T12:39:34;97368.22;;;11.87;63.06
70254;BME280;57649;42.968;1.608;2022-11-20T12:48:13;97384.16;;;11.81;66.98
70254;BME280;57649;42.968;1.608;2022-11-20T12:56:28;97380.25;;;11.21;76.43
70254;BME280;57649;42.968;1.608;2022-11-20T13:01:56;97399.06;;;10.96;79.16
70254;BME280;57649;42.968;1.608;2022-11-20T13:07:12;97402.78;;;10.87;84.46
70254;BME280;57649;42.968;1.608;2022-11-20T13:09:47;97389.56;;;10.77;85.30
70254;BME280;57649;42.968;1.608;2022-11-20T13:12:43;97392.25;;;10.69;86.75
70254;BME280;57649;42.968;1.608;2022-11-20T13:15:33;97411.69;;;10.46;89.05
70254;BME280;57649;42.968;1.608;2022-11-20T13:18:04;97410.66;;;10.39;90.79
70254;BME280;57649;42.968;1.608;2022-11-20T13:20:32;97403.63;;;10.30;95.24
70254;BME280;57649;42.968;1.608;2022-11-20T13:22:58;97406.78;;;10.25;93.67
70254;BME280;57649;42.968;1.608;2022-11-20T13:25:38;97415.00;;;10.32;94.86
70254;BME280;57649;42.968;1.608;2022-11-20T13:28:27;97397.88;;;10.16;86.98
70254;BME280;57649;42.968;1.608;2022-11-20T13:30:55;97383.19;;;10.29;89.38
70254;BME280;57649;42.968;1.608;2022-11-20T13:33:35;97394.78;;;10.37;87.07
70254;BME280;57649;42.968;1.608;2022-11-20T13:36:02;97374.34;;;10.36;87.59
70254;BME280;57649;42.968;1.608;2022-11-20T13:38:42;97385.25;;;10.43;91.23
70254;BME280;57649;42.968;1.608;2022-11-20T13:41:08;97379.41;;;10.48;91.27
70254;BME280;57649;42.968;1.608;2022-11-20T13:43:54;97372.84;;;10.42;90.89
70254;BME280;57649;42.968;1.608;2022-11-20T13:46:19;97371.34;;;10.39;88.32
70254;BME280;57649;42.968;1.608;2022-11-20T13:48:50;97365.81;;;10.49;89.82
70254;BME280;57649;42.968;1.608;2022-11-20T13:51:56;97365.16;;;10.55;87.08
70254;BME280;57649;42.968;1.608;2022-11-20T13:57:44;97358.78;;;10.65;87.77
70254;BME280;57649;42.968;1.608;2022-11-20T14:00:21;97347.41;;;10.71;88.24
70254;BME280;57649;42.968;1.608;2022-11-20T14:03:09;97333.34;;;10.77;88.66
70254;BME280;57649;42.968;1.608;2022-11-20T14:05:50;97329.00;;;10.76;88.58
70254;BME280;57649;42.968;1.608;2022-11-20T14:08:24;97326.63;;;10.81;90.97
70254;BME280;57649;42.968;1.608;2022-11-20T14:10:50;97326.44;;;10.91;88.34
70254;BME280;57649;42.968;1.608;2022-11-20T14:13:19;97330.63;;;10.85;89.50
70254;BME280;57649;42.968;1.608;2022-11-20T14:15:45;97315.72;;;10.91;86.35
70254;BME280;57649;42.968;1.608;2022-11-20T14:18:20;97320.88;;;11.01;86.48
70254;BME280;57649;42.968;1.608;2022-11-20T14:20:47;97300.41;;;11.08;85.62
70254;BME280;57649;42.968;1.608;2022-11-20T14:23:26;97304.88;;;11.24;92.18
70254;BME280;57649;42.968;1.608;2022-11-20T14:25:53;97302.03;;;11.17;95.31
70254;BME280;57649;42.968;1.608;2022-11-20T14:28:25;97313.41;;;11.19;92.45
70254;BME280;57649;42.968;1.608;2022-11-20T14:30:51;97310.06;;;11.25;91.99
70254;BME280;57649;42.968;1.608;2022-11-20T14:33:17;97310.06;;;11.25;92.36
70254;BME280;57649;42.968;1.608;2022-11-20T14:35:48;97318.75;;;11.27;92.24
70254;BME280;57649;42.968;1.608;2022-11-20T14:38:17;97309.09;;;11.18;94.40
70254;BME280;57649;42.968;1.608;2022-11-20T14:40:43;97319.66;;;11.11;96.67
70254;BME280;57649;42.968;1.608;2022-11-20T14:43:25;97310.19;;;10.92;94.76
70254;BME280;57649;42.968;1.608;2022-11-20T14:46:08;97313.03;;;10.91;98.13
70254;BME280;57649;42.968;1.608;2022-11-20T14:48:44;97307.66;;;10.99;94.14
70254;BME280;57649;42.968;1.608;2022-11-20T14:51:12;97318.72;;;10.96;95.47